createdAt,value
2018-12-02T00:00:31.753Z,95283.77
2018-12-02T00:01:35.244Z,95285.77
2018-12-02T00:02:38.712Z,95279.94
2018-12-02T00:03:42.154Z,95278.45
2018-12-02T00:04:45.658Z,95279.02
2018-12-02T00:05:49.151Z,95276.06
2018-12-02T00:06:52.675Z,95280.16
2018-12-02T00:07:56.164Z,95272.15
2018-12-02T00:08:59.615Z,95280.92
2018-12-02T00:10:04.039Z,95276.25
2018-12-02T00:11:07.547Z,95282.78
2018-12-02T00:12:11.600Z,95279.08
2018-12-02T00:13:15.141Z,95277.92
2018-12-02T00:14:18.706Z,95285.03
2018-12-02T00:15:26.324Z,95276.08
2018-12-02T00:16:29.811Z,95287.27
2018-12-02T00:17:33.387Z,95281.25
2018-12-02T00:18:36.842Z,95273.41
2018-12-02T00:19:40.413Z,95273.45
2018-12-02T00:20:43.907Z,95270.09
2018-12-02T00:21:47.447Z,95268.08
2018-12-02T00:22:50.943Z,95275.92
2018-12-02T00:23:54.707Z,95269.37
2018-12-02T00:24:58.262Z,95261.69
2018-12-02T00:26:01.723Z,95264.47
2018-12-02T00:27:05.612Z,95262.39
2018-12-02T00:28:11.050Z,95260.69
2018-12-02T00:29:14.760Z,95262.56
2018-12-02T00:30:22.314Z,95254.59
2018-12-02T00:31:25.811Z,95257.22
2018-12-02T00:32:29.399Z,95250.13
2018-12-02T00:33:32.985Z,95253.67
2018-12-02T00:34:36.437Z,95245.87
2018-12-02T00:35:40.104Z,95242.48
2018-12-02T00:36:43.672Z,95240.09
2018-12-02T00:37:49.130Z,95238.20
2018-12-02T00:38:52.611Z,95240.44
2018-12-02T00:39:56.202Z,95244.35
2018-12-02T00:40:59.656Z,95242.27
2018-12-02T00:42:03.230Z,95237.36
2018-12-02T00:43:08.692Z,95232.83
2018-12-02T00:44:12.283Z,95235.63
2018-12-02T00:45:17.948Z,95228.59
2018-12-02T00:46:21.516Z,95228.64
2018-12-02T00:47:25.121Z,95224.94
2018-12-02T00:48:28.666Z,95223.80
2018-12-02T00:49:32.354Z,95222.32
2018-12-02T00:50:35.938Z,95218.19
2018-12-02T00:51:39.509Z,95215.57
2018-12-02T00:52:43.916Z,95221.01
2018-12-02T00:53:47.470Z,95211.84
2018-12-02T00:54:51.059Z,95213.76
2018-12-02T00:56:01.820Z,95208.89
2018-12-02T00:57:05.632Z,95214.84
2018-12-02T00:58:09.347Z,95204.54
2018-12-02T00:59:12.840Z,95207.11
2018-12-02T01:00:16.902Z,95204.55
2018-12-02T01:01:20.489Z,95213.87
2018-12-02T01:02:24.051Z,95207.54
2018-12-02T01:03:28.291Z,95213.86
2018-12-02T01:04:31.797Z,95213.66
2018-12-02T01:05:35.367Z,95212.19
2018-12-02T01:06:38.925Z,95211.09
2018-12-02T01:07:42.543Z,95212.78
2018-12-02T01:08:46.108Z,95212.78
2018-12-02T01:09:49.710Z,95205.84
2018-12-02T01:10:53.192Z,95209.03
2018-12-02T01:11:56.760Z,95211.84
2018-12-02T01:13:00.566Z,95209.06
2018-12-02T01:14:04.090Z,95209.06
2018-12-02T01:15:10.316Z,95209.03
2018-12-02T01:16:13.796Z,95207.54
2018-12-02T01:17:17.257Z,95201.54
2018-12-02T01:18:20.795Z,95204.00
2018-12-02T01:19:30.890Z,95201.55
2018-12-02T01:20:34.441Z,95198.98
2018-12-02T01:21:37.883Z,95199.86
2018-12-02T01:22:41.374Z,95201.88
2018-12-02T01:23:44.867Z,95189.98
2018-12-02T01:24:48.318Z,95197.23
2018-12-02T01:25:51.839Z,95190.48
2018-12-02T01:26:55.350Z,95194.25
2018-12-02T01:27:58.895Z,95194.23
2018-12-02T01:29:02.435Z,95194.56
2018-12-02T01:30:12.283Z,95192.88
2018-12-02T01:31:15.817Z,95194.23
2018-12-02T01:32:19.316Z,95187.70
2018-12-02T01:33:22.814Z,95190.82
2018-12-02T01:34:26.298Z,95188.58
2018-12-02T01:35:29.791Z,95193.80
2018-12-02T01:36:33.358Z,95193.44
2018-12-02T01:37:36.888Z,95192.67
2018-12-02T01:38:40.431Z,95187.81
2018-12-02T01:39:43.971Z,95186.33
2018-12-02T01:40:48.323Z,95176.46
2018-12-02T01:41:51.851Z,95182.09
2018-12-02T01:42:55.320Z,95187.31
2018-12-02T01:43:58.811Z,95186.55
2018-12-02T01:45:02.338Z,95182.38
2018-12-02T01:46:05.815Z,95178.31
2018-12-02T01:47:09.294Z,95171.77
2018-12-02T01:48:12.752Z,95174.41
2018-12-02T01:49:16.277Z,95164.73
2018-12-02T01:50:20.888Z,95163.94
2018-12-02T01:51:24.467Z,95165.08
2018-12-02T01:52:28.058Z,95165.61
2018-12-02T01:53:31.487Z,95170.70
2018-12-02T01:54:35.033Z,95167.05
2018-12-02T01:55:38.507Z,95161.96
2018-12-02T01:56:42.098Z,95154.07
2018-12-02T01:57:45.619Z,95155.88
2018-12-02T01:58:49.111Z,95151.06
2018-12-02T01:59:52.663Z,95157.39
2018-12-02T02:00:56.260Z,95153.84
2018-12-02T02:01:59.729Z,95143.72
2018-12-02T02:03:03.214Z,95148.90
2018-12-02T02:04:06.719Z,95150.05
2018-12-02T02:05:10.195Z,95141.82
2018-12-02T02:06:13.751Z,95141.82
2018-12-02T02:07:17.271Z,95141.48
2018-12-02T02:08:20.770Z,95139.46
2018-12-02T02:09:24.253Z,95137.23
2018-12-02T02:10:28.959Z,95140.06
2018-12-02T02:11:32.399Z,95132.92
2018-12-02T02:12:35.890Z,95131.74
2018-12-02T02:13:39.587Z,95124.98
2018-12-02T02:14:43.120Z,95121.27
2018-12-02T02:15:46.788Z,95123.89
2018-12-02T02:16:50.268Z,95120.73
2018-12-02T02:17:53.751Z,95120.58
2018-12-02T02:18:57.315Z,95121.75
2018-12-02T02:20:00.875Z,95114.63
2018-12-02T02:21:04.499Z,95110.70
2018-12-02T02:22:07.975Z,95113.48
2018-12-02T02:23:11.979Z,95124.11
2018-12-02T02:24:15.467Z,95116.20
2018-12-02T02:25:19.973Z,95117.89
2018-12-02T02:26:23.459Z,95110.26
2018-12-02T02:27:27.063Z,95111.84
2018-12-02T02:28:30.523Z,95110.70
2018-12-02T02:29:34.025Z,95108.42
2018-12-02T02:30:37.625Z,95112.54
2018-12-02T02:31:41.108Z,95113.09
2018-12-02T02:32:44.627Z,95110.27
2018-12-02T02:33:48.184Z,95110.09
2018-12-02T02:34:51.636Z,95112.12
2018-12-02T02:35:55.126Z,95106.73
2018-12-02T02:36:58.609Z,95109.34
2018-12-02T02:38:02.071Z,95107.86
2018-12-02T02:39:08.188Z,95100.77
2018-12-02T02:40:15.977Z,95104.11
2018-12-02T02:41:19.537Z,95101.53
2018-12-02T02:42:23.138Z,95099.48
2018-12-02T02:43:26.620Z,95099.69
2018-12-02T02:44:30.112Z,95097.63
2018-12-02T02:45:33.592Z,95101.33
2018-12-02T02:46:37.189Z,95100.02
2018-12-02T02:47:40.789Z,95096.98
2018-12-02T02:48:44.252Z,95096.59
2018-12-02T02:49:47.741Z,95094.94
2018-12-02T02:50:51.227Z,95094.02
2018-12-02T02:51:56.256Z,95089.89
2018-12-02T02:53:02.007Z,95090.09
2018-12-02T02:54:06.179Z,95087.48
2018-12-02T02:55:09.676Z,95087.09
2018-12-02T02:56:13.183Z,95086.34
2018-12-02T02:57:16.813Z,95082.21
2018-12-02T02:58:20.302Z,95084.07
2018-12-02T02:59:23.872Z,95085.21
2018-12-02T03:00:28.219Z,95082.25
2018-12-02T03:01:32.251Z,95073.61
2018-12-02T03:02:35.728Z,95077.52
2018-12-02T03:03:39.324Z,95081.27
2018-12-02T03:04:42.856Z,95077.53
2018-12-02T03:05:46.399Z,95076.98
2018-12-02T03:06:49.926Z,95080.35
2018-12-02T03:07:53.539Z,95078.11
2018-12-02T03:08:57.100Z,95083.69
2018-12-02T03:10:00.640Z,95078.83
2018-12-02T03:11:04.152Z,95078.28
2018-12-02T03:12:07.663Z,95080.14
2018-12-02T03:13:11.111Z,95082.75
2018-12-02T03:14:14.734Z,95078.66
2018-12-02T03:15:19.009Z,95078.50
2018-12-02T03:16:22.526Z,95076.22
2018-12-02T03:17:26.056Z,95070.61
2018-12-02T03:18:29.540Z,95071.00
2018-12-02T03:19:33.132Z,95066.52
2018-12-02T03:20:36.599Z,95066.14
2018-12-02T03:21:40.092Z,95064.45
2018-12-02T03:22:44.739Z,95066.89
2018-12-02T03:23:48.215Z,95065.75
2018-12-02T03:24:51.772Z,95061.07
2018-12-02T03:25:55.363Z,95059.77
2018-12-02T03:26:58.807Z,95059.77
2018-12-02T03:28:02.287Z,95064.66
2018-12-02T03:29:06.063Z,95062.97
2018-12-02T03:30:15.767Z,95057.02
2018-12-02T03:31:19.344Z,95061.88
2018-12-02T03:32:22.838Z,95059.82
2018-12-02T03:33:26.319Z,95064.33
2018-12-02T03:34:29.922Z,95058.52
2018-12-02T03:35:33.512Z,95056.31
2018-12-02T03:36:37.024Z,95058.17
2018-12-02T03:37:40.513Z,95060.23
2018-12-02T03:38:43.971Z,95057.84
2018-12-02T03:39:47.484Z,95059.52
2018-12-02T03:40:51.125Z,95055.90
2018-12-02T03:41:54.622Z,95049.52
2018-12-02T03:42:58.261Z,95053.45
2018-12-02T03:44:01.752Z,95049.52
2018-12-02T03:45:06.355Z,95051.76
2018-12-02T03:46:09.932Z,95048.93
2018-12-02T03:47:13.373Z,95049.00
2018-12-02T03:48:16.895Z,95045.78
2018-12-02T03:49:21.244Z,95041.69
2018-12-02T03:50:25.753Z,95037.94
2018-12-02T03:51:29.284Z,95038.73
2018-12-02T03:52:32.891Z,95038.38
2018-12-02T03:53:36.349Z,95033.53
2018-12-02T03:54:39.787Z,95036.73
2018-12-02T03:55:43.289Z,95031.72
2018-12-02T03:56:47.751Z,95042.94
2018-12-02T03:57:51.251Z,95035.52
2018-12-02T03:58:54.691Z,95036.10
2018-12-02T03:59:58.207Z,95033.12
2018-12-02T04:01:01.647Z,95034.42
2018-12-02T04:02:05.510Z,95034.84
2018-12-02T04:03:09.616Z,95035.02
2018-12-02T04:04:13.083Z,95024.00
2018-12-02T04:05:18.691Z,95023.03
2018-12-02T04:06:22.228Z,95024.17
2018-12-02T04:07:26.236Z,95020.25
2018-12-02T04:08:29.762Z,95024.76
2018-12-02T04:09:33.208Z,95018.77
2018-12-02T04:10:37.550Z,95017.66
2018-12-02T04:11:41.060Z,95019.28
2018-12-02T04:12:45.302Z,95016.50
2018-12-02T04:13:48.749Z,95021.77
2018-12-02T04:14:52.211Z,95015.57
2018-12-02T04:15:55.792Z,95014.80
2018-12-02T04:16:59.392Z,95013.46
2018-12-02T04:18:02.955Z,95009.74
2018-12-02T04:19:06.444Z,95013.66
2018-12-02T04:20:11.345Z,95008.78
2018-12-02T04:21:14.827Z,95009.16
2018-12-02T04:22:18.311Z,95011.60
2018-12-02T04:23:21.939Z,95006.17
2018-12-02T04:24:25.387Z,95010.47
2018-12-02T04:25:28.831Z,95013.66
2018-12-02T04:26:32.371Z,95007.51
2018-12-02T04:27:35.856Z,95005.62
2018-12-02T04:28:39.378Z,95010.47
2018-12-02T04:29:42.865Z,95003.59
2018-12-02T04:30:46.383Z,94996.08
2018-12-02T04:31:49.939Z,94998.16
2018-12-02T04:32:54.167Z,94997.43
2018-12-02T04:33:57.741Z,94994.81
2018-12-02T04:35:01.240Z,94989.79
2018-12-02T04:36:04.816Z,94997.64
2018-12-02T04:37:08.293Z,95001.91
2018-12-02T04:38:11.821Z,95001.35
2018-12-02T04:39:15.361Z,94997.43
2018-12-02T04:40:18.868Z,95000.05
2018-12-02T04:41:22.324Z,95000.80
2018-12-02T04:42:25.912Z,95000.59
2018-12-02T04:43:29.412Z,95000.05
2018-12-02T04:44:32.894Z,94999.70
2018-12-02T04:45:36.363Z,95002.91
2018-12-02T04:46:39.904Z,95004.20
2018-12-02T04:47:43.432Z,95002.91
2018-12-02T04:48:46.908Z,94998.77
2018-12-02T04:49:50.978Z,95007.17
2018-12-02T04:50:54.404Z,94999.88
2018-12-02T04:51:57.937Z,94997.80
2018-12-02T04:53:01.472Z,94996.67
2018-12-02T04:54:04.942Z,94998.77
2018-12-02T04:55:09.378Z,94994.50
2018-12-02T04:56:12.915Z,94987.23
2018-12-02T04:57:16.375Z,94993.40
2018-12-02T04:58:19.936Z,94984.06
2018-12-02T04:59:23.483Z,94985.55
2018-12-02T05:00:26.972Z,94992.84
2018-12-02T05:01:30.553Z,94987.23
2018-12-02T05:02:34.046Z,94981.80
2018-12-02T05:03:37.536Z,94980.52
2018-12-02T05:04:41.123Z,94979.59
2018-12-02T05:05:44.597Z,94979.01
2018-12-02T05:06:48.207Z,94982.94
2018-12-02T05:07:52.008Z,94979.38
2018-12-02T05:08:55.641Z,94977.15
2018-12-02T05:09:59.187Z,94975.08
2018-12-02T05:11:02.679Z,94984.24
2018-12-02T05:12:06.675Z,94977.53
2018-12-02T05:13:10.207Z,94980.32
2018-12-02T05:14:13.703Z,94982.18
2018-12-02T05:15:18.423Z,94978.63
2018-12-02T05:16:21.989Z,94975.08
2018-12-02T05:17:25.519Z,94976.97
2018-12-02T05:18:29.481Z,94978.66
2018-12-02T05:19:32.971Z,94973.78
2018-12-02T05:20:36.521Z,94973.95
2018-12-02T05:21:40.042Z,94978.05
2018-12-02T05:22:43.906Z,94975.98
2018-12-02T05:23:47.540Z,94981.62
2018-12-02T05:24:51.840Z,94980.32
2018-12-02T05:25:55.343Z,94984.04
2018-12-02T05:26:58.881Z,94981.77
2018-12-02T05:28:02.328Z,94983.66
2018-12-02T05:29:06.074Z,94983.63
2018-12-02T05:30:15.980Z,94983.84
2018-12-02T05:31:19.492Z,94976.74
2018-12-02T05:32:22.984Z,94970.41
2018-12-02T05:33:26.419Z,94971.54
2018-12-02T05:34:29.929Z,94980.17
2018-12-02T05:35:33.392Z,94980.55
2018-12-02T05:36:36.952Z,94973.62
2018-12-02T05:37:40.527Z,94972.52
2018-12-02T05:38:44.211Z,94968.23
2018-12-02T05:39:47.759Z,94969.16
2018-12-02T05:40:51.291Z,94961.13
2018-12-02T05:42:00.067Z,94962.45
2018-12-02T05:43:03.576Z,94965.41
2018-12-02T05:44:07.048Z,94967.66
2018-12-02T05:45:14.713Z,94966.33
2018-12-02T05:46:18.257Z,94966.12
2018-12-02T05:47:21.700Z,94966.30
2018-12-02T05:48:25.210Z,94961.08
2018-12-02T05:49:28.698Z,94961.80
2018-12-02T05:50:32.194Z,94967.41
2018-12-02T05:51:35.694Z,94963.48
2018-12-02T05:52:39.280Z,94964.27
2018-12-02T05:53:42.862Z,94967.81
2018-12-02T05:54:46.327Z,94959.97
2018-12-02T05:55:49.835Z,94961.09
2018-12-02T05:56:53.345Z,94962.22
2018-12-02T05:57:56.823Z,94968.41
2018-12-02T05:59:00.874Z,94966.74
2018-12-02T06:00:05.514Z,94967.50
2018-12-02T06:01:09.019Z,94969.91
2018-12-02T06:02:12.518Z,94963.19
2018-12-02T06:03:16.138Z,94966.73
2018-12-02T06:04:19.596Z,94963.77
2018-12-02T06:05:23.110Z,94962.46
2018-12-02T06:06:26.594Z,94963.56
2018-12-02T06:07:30.128Z,94962.83
2018-12-02T06:08:33.664Z,94968.99
2018-12-02T06:09:37.215Z,94971.63
2018-12-02T06:10:40.717Z,94968.43
2018-12-02T06:11:44.173Z,94975.38
2018-12-02T06:12:47.704Z,94970.14
2018-12-02T06:13:51.224Z,94964.33
2018-12-02T06:14:54.793Z,94963.02
2018-12-02T06:15:58.316Z,94963.20
2018-12-02T06:17:01.846Z,94956.47
2018-12-02T06:18:05.609Z,94963.22
2018-12-02T06:19:09.077Z,94962.83
2018-12-02T06:20:18.735Z,94962.28
2018-12-02T06:21:22.242Z,94966.38
2018-12-02T06:22:25.734Z,94960.22
2018-12-02T06:23:32.349Z,94949.57
2018-12-02T06:24:35.840Z,94936.84
2018-12-02T06:25:39.401Z,94928.27
2018-12-02T06:26:43.020Z,94922.48
2018-12-02T06:27:46.912Z,94922.63
2018-12-02T06:28:50.464Z,94920.38
2018-12-02T06:29:53.943Z,94923.57
2018-12-02T06:30:57.384Z,94916.09
2018-12-02T06:32:00.903Z,94916.09
2018-12-02T06:33:05.057Z,94910.88
2018-12-02T06:34:08.508Z,94899.63
2018-12-02T06:35:13.792Z,94898.48
2018-12-02T06:36:17.302Z,94901.16
2018-12-02T06:37:20.799Z,94902.23
2018-12-02T06:38:24.427Z,94910.65
2018-12-02T06:39:27.893Z,94880.17
2018-12-02T06:40:31.408Z,94910.67
2018-12-02T06:41:34.826Z,94915.55
2018-12-02T06:42:38.309Z,94908.80
2018-12-02T06:43:41.802Z,94908.63
2018-12-02T06:44:45.263Z,94919.63
2018-12-02T06:45:48.702Z,94923.20
2018-12-02T06:46:52.243Z,94921.32
2018-12-02T06:47:55.796Z,94917.59
2018-12-02T06:48:59.250Z,94913.09
2018-12-02T06:50:02.779Z,94916.28
2018-12-02T06:51:06.783Z,94917.22
2018-12-02T06:52:10.267Z,94913.66
2018-12-02T06:53:13.703Z,94912.33
2018-12-02T06:54:17.191Z,94918.33
2018-12-02T06:55:34.888Z,94912.73
2018-12-02T06:56:41.952Z,94919.44
2018-12-02T06:57:49.419Z,94914.95
2018-12-02T07:00:03.360Z,94917.77
2018-12-02T07:01:28.872Z,94917.75
2018-12-02T07:03:12.500Z,94919.44
2018-12-02T07:04:28.084Z,94916.83
2018-12-02T07:05:37.082Z,94912.53
2018-12-02T07:06:40.628Z,94906.91
2018-12-02T07:07:44.094Z,94908.79
2018-12-02T07:08:47.555Z,94911.79
2018-12-02T07:09:51.114Z,94918.14
2018-12-02T07:10:54.561Z,94922.26
2018-12-02T07:11:58.031Z,94930.13
2018-12-02T07:13:01.482Z,94931.05
2018-12-02T07:14:05.028Z,94928.44
2018-12-02T07:15:08.583Z,94920.38
2018-12-02T07:16:12.142Z,94928.60
2018-12-02T07:17:15.639Z,94921.52
2018-12-02T07:18:23.479Z,94928.61
2018-12-02T07:19:37.215Z,94913.27
2018-12-02T07:20:43.384Z,94911.59
2018-12-02T07:21:51.066Z,94910.48
2018-12-02T07:22:57.587Z,94923.20
2018-12-02T07:24:05.408Z,94917.58
2018-12-02T07:25:11.397Z,94917.78
2018-12-02T07:26:18.413Z,94920.21
2018-12-02T07:27:21.871Z,94915.33
2018-12-02T07:28:25.460Z,94912.36
2018-12-02T07:29:29.020Z,94913.83
2018-12-02T07:30:32.479Z,94913.83
2018-12-02T07:31:35.938Z,94905.61
2018-12-02T07:32:39.386Z,94909.16
2018-12-02T07:33:42.911Z,94913.11
2018-12-02T07:34:46.445Z,94905.42
2018-12-02T07:35:49.915Z,94901.13
2018-12-02T07:36:54.189Z,94897.02
2018-12-02T07:37:59.220Z,94890.83
2018-12-02T07:40:13.788Z,94890.08
2018-12-02T07:41:17.356Z,94887.08
2018-12-02T07:42:20.898Z,94880.94
2018-12-02T07:43:24.411Z,94885.40
2018-12-02T07:44:27.896Z,94883.92
2018-12-02T07:45:31.377Z,94874.20
2018-12-02T07:46:34.827Z,94870.66
2018-12-02T07:47:38.452Z,94868.57
2018-12-02T07:48:41.942Z,94873.25
2018-12-02T07:49:45.431Z,94877.94
2018-12-02T07:50:48.907Z,94885.94
2018-12-02T07:51:52.383Z,94886.14
2018-12-02T07:52:55.944Z,94891.39
2018-12-02T07:53:59.416Z,94888.98
2018-12-02T07:55:03.048Z,94886.16
2018-12-02T07:56:06.691Z,94887.48
2018-12-02T07:57:12.005Z,94884.67
2018-12-02T07:58:16.319Z,94888.41
2018-12-02T07:59:20.471Z,94896.83
2018-12-02T08:00:24.311Z,94885.39
2018-12-02T08:01:28.585Z,94893.25
2018-12-02T08:02:33.244Z,94906.94
2018-12-02T08:03:37.094Z,94899.43
2018-12-02T08:04:40.793Z,94897.75
2018-12-02T08:05:44.307Z,94894.22
2018-12-02T08:06:47.756Z,94893.26
2018-12-02T08:07:51.911Z,94894.94
2018-12-02T08:08:55.486Z,94887.28
2018-12-02T08:09:59.064Z,94892.91
2018-12-02T08:11:02.768Z,94904.88
2018-12-02T08:12:06.479Z,94908.59
2018-12-02T08:13:09.963Z,94896.44
2018-12-02T08:14:13.867Z,94905.23
2018-12-02T08:15:19.184Z,94921.70
2018-12-02T08:16:22.693Z,94904.84
2018-12-02T08:17:26.163Z,94898.48
2018-12-02T08:18:29.671Z,94890.82
2018-12-02T08:19:33.241Z,94891.56
2018-12-02T08:20:36.821Z,94895.28
2018-12-02T08:21:40.966Z,94897.52
2018-12-02T08:22:45.071Z,94894.70
2018-12-02T08:23:48.621Z,94896.70
2018-12-02T08:24:52.059Z,94891.97
2018-12-02T08:25:55.603Z,94897.67
2018-12-02T08:26:59.096Z,94890.95
2018-12-02T08:28:02.676Z,94891.31
2018-12-02T08:29:06.267Z,94888.70
2018-12-02T08:30:11.940Z,94889.41
2018-12-02T08:31:15.503Z,94888.14
2018-12-02T08:32:19.131Z,94882.72
2018-12-02T08:33:22.595Z,94882.19
2018-12-02T08:34:26.165Z,94887.04
2018-12-02T08:35:29.963Z,94880.10
2018-12-02T08:36:33.436Z,94871.07
2018-12-02T08:37:36.935Z,94871.06
2018-12-02T08:38:40.363Z,94874.09
2018-12-02T08:39:43.835Z,94867.20
2018-12-02T08:40:47.967Z,94872.06
2018-12-02T08:41:51.507Z,94868.13
2018-12-02T08:42:54.963Z,94866.44
2018-12-02T08:43:58.441Z,94869.81
2018-12-02T08:45:01.904Z,94876.19
2018-12-02T08:46:05.457Z,94872.25
2018-12-02T08:47:09.086Z,94860.50
2018-12-02T08:48:12.635Z,94860.86
2018-12-02T08:49:16.126Z,94869.45
2018-12-02T08:50:20.746Z,94877.49
2018-12-02T08:51:24.311Z,94872.33
2018-12-02T08:52:27.822Z,94862.80
2018-12-02T08:53:31.306Z,94859.22
2018-12-02T08:54:34.912Z,94855.86
2018-12-02T08:55:38.466Z,94856.02
2018-12-02T08:56:41.953Z,94857.67
2018-12-02T08:57:45.784Z,94855.05
2018-12-02T08:58:49.263Z,94854.32
2018-12-02T08:59:52.716Z,94854.89
2018-12-02T09:00:56.326Z,94855.81
2018-12-02T09:01:59.831Z,94841.06
2018-12-02T09:03:05.256Z,94842.19
2018-12-02T09:04:08.693Z,94846.11
2018-12-02T09:05:13.308Z,94841.79
2018-12-02T09:06:16.867Z,94847.77
2018-12-02T09:07:20.432Z,94847.95
2018-12-02T09:08:24.047Z,94844.57
2018-12-02T09:09:28.637Z,94835.41
2018-12-02T09:10:32.524Z,94841.22
2018-12-02T09:11:36.087Z,94851.66
2018-12-02T09:12:39.609Z,94847.91
2018-12-02T09:13:43.097Z,94850.11
2018-12-02T09:14:46.707Z,94846.55
2018-12-02T09:15:50.162Z,94837.38
2018-12-02T09:16:53.791Z,94847.86
2018-12-02T09:17:57.398Z,94844.88
2018-12-02T09:19:00.948Z,94852.73
2018-12-02T09:20:08.128Z,94858.75
2018-12-02T09:21:11.715Z,94865.52
2018-12-02T09:22:15.192Z,94858.28
2018-12-02T09:23:18.981Z,94855.67
2018-12-02T09:24:23.201Z,94857.93
2018-12-02T09:25:27.604Z,94855.86
2018-12-02T09:26:31.359Z,94856.81
2018-12-02T09:27:35.034Z,94854.55
2018-12-02T09:28:39.373Z,94856.42
2018-12-02T09:29:43.871Z,94863.33
2018-12-02T09:30:47.703Z,94879.05
2018-12-02T09:31:53.080Z,94867.66
2018-12-02T09:32:56.814Z,94876.44
2018-12-02T09:34:01.953Z,94861.86
2018-12-02T09:35:06.428Z,94870.45
2018-12-02T09:36:11.072Z,94861.48
2018-12-02T09:37:14.909Z,94855.86
2018-12-02T09:38:18.546Z,94854.37
2018-12-02T09:39:22.344Z,94845.95
2018-12-02T09:40:25.916Z,94845.37
2018-12-02T09:41:29.448Z,94853.44
2018-12-02T09:42:33.176Z,94849.51
2018-12-02T09:43:37.461Z,94851.74
2018-12-02T09:44:42.220Z,94854.75
2018-12-02T09:45:45.915Z,94858.69
2018-12-02T09:46:49.522Z,94853.23
2018-12-02T09:47:53.466Z,94844.46
2018-12-02T09:48:56.996Z,94853.06
2018-12-02T09:50:00.543Z,94848.02
2018-12-02T09:51:04.128Z,94846.53
2018-12-02T09:52:08.320Z,94848.78
2018-12-02T09:53:12.363Z,94853.28
2018-12-02T09:54:17.001Z,94846.36
2018-12-02T09:55:23.004Z,94839.80
2018-12-02T09:56:27.408Z,94836.07
2018-12-02T09:57:30.690Z,94836.42
2018-12-02T09:58:35.385Z,94838.47
2018-12-02T09:59:39.048Z,94837.90
2018-12-02T10:00:43.334Z,94837.37
2018-12-02T10:01:47.647Z,94833.98
2018-12-02T10:02:51.310Z,94834.54
2018-12-02T10:03:54.928Z,94831.92
2018-12-02T10:04:58.636Z,94833.64
2018-12-02T10:06:03.068Z,94827.06
2018-12-02T10:07:07.791Z,94826.14
2018-12-02T10:08:11.331Z,94821.64
2018-12-02T10:09:15.775Z,94827.44
2018-12-02T10:10:22.678Z,94820.70
2018-12-02T10:11:24.806Z,94823.34
2018-12-02T10:12:28.400Z,94822.23
2018-12-02T10:13:32.356Z,94814.17
2018-12-02T10:14:37.344Z,94818.81
2018-12-02T10:15:42.334Z,94812.84
2018-12-02T10:16:46.869Z,94811.71
2018-12-02T10:17:51.640Z,94798.05
2018-12-02T10:18:55.680Z,94802.19
2018-12-02T10:19:59.476Z,94805.53
2018-12-02T10:21:03.639Z,94807.40
2018-12-02T10:22:07.382Z,94804.24
2018-12-02T10:23:11.431Z,94806.30
2018-12-02T10:24:15.004Z,94802.74
2018-12-02T10:25:20.075Z,94802.87
2018-12-02T10:26:23.799Z,94814.34
2018-12-02T10:27:27.431Z,94790.02
2018-12-02T10:28:31.112Z,94809.83
2018-12-02T10:29:34.839Z,94810.58
2018-12-02T10:30:40.172Z,94796.55
2018-12-02T10:31:43.948Z,94783.31
2018-12-02T10:32:48.393Z,94778.77
2018-12-02T10:33:51.900Z,94776.88
2018-12-02T10:34:55.403Z,94775.70
2018-12-02T10:35:58.915Z,94780.52
2018-12-02T10:37:02.419Z,94784.23
2018-12-02T10:38:07.387Z,94788.39
2018-12-02T10:39:11.071Z,94790.42
2018-12-02T10:40:15.831Z,94800.20
2018-12-02T10:41:20.479Z,94799.10
2018-12-02T10:42:24.274Z,94789.18
2018-12-02T10:43:28.306Z,94790.10
2018-12-02T10:44:31.808Z,94791.80
2018-12-02T10:45:35.620Z,94796.08
2018-12-02T10:46:43.798Z,94796.44
2018-12-02T10:47:42.868Z,94797.36
2018-12-02T10:48:46.383Z,94801.44
2018-12-02T10:49:49.880Z,94805.31
2018-12-02T10:50:53.570Z,94797.42
2018-12-02T10:51:57.112Z,94805.84
2018-12-02T10:53:03.292Z,94798.20
2018-12-02T10:54:10.548Z,94800.03
2018-12-02T10:55:19.965Z,94796.11
2018-12-02T10:56:23.526Z,94799.28
2018-12-02T10:57:27.108Z,94788.63
2018-12-02T10:58:32.072Z,94784.48
2018-12-02T10:59:35.580Z,94783.36
2018-12-02T11:00:44.374Z,94782.05
2018-12-02T11:01:52.062Z,94777.39
2018-12-02T11:02:55.645Z,94780.80
2018-12-02T11:03:59.183Z,94773.63
2018-12-02T11:05:02.736Z,94776.02
2018-12-02T11:06:06.670Z,94780.44
2018-12-02T11:07:10.129Z,94775.09
2018-12-02T11:08:13.608Z,94777.20
2018-12-02T11:09:17.109Z,94781.72
2018-12-02T11:10:20.720Z,94785.29
2018-12-02T11:11:25.219Z,94784.90
2018-12-02T11:12:28.665Z,94790.17
2018-12-02T11:13:32.111Z,94782.89
2018-12-02T11:14:35.560Z,94786.93
2018-12-02T11:15:39.775Z,94782.83
2018-12-02T11:16:43.267Z,94777.55
2018-12-02T11:17:47.349Z,94776.64
2018-12-02T11:18:50.886Z,94768.81
2018-12-02T11:19:54.362Z,94779.66
2018-12-02T11:20:57.832Z,94771.06
2018-12-02T11:22:01.288Z,94776.25
2018-12-02T11:23:05.243Z,94784.92
2018-12-02T11:24:08.779Z,94760.19
2018-12-02T11:25:13.289Z,94760.42
2018-12-02T11:26:16.989Z,94755.47
2018-12-02T11:27:20.663Z,94763.69
2018-12-02T11:28:24.163Z,94757.14
2018-12-02T11:29:27.672Z,94756.55
2018-12-02T11:30:31.211Z,94762.58
2018-12-02T11:31:34.712Z,94755.95
2018-12-02T11:32:38.187Z,94758.22
2018-12-02T11:33:41.945Z,94758.61
2018-12-02T11:34:45.577Z,94767.98
2018-12-02T11:35:49.091Z,94761.76
2018-12-02T11:36:53.736Z,94770.77
2018-12-02T11:37:57.219Z,94763.78
2018-12-02T11:39:01.445Z,94760.48
2018-12-02T11:40:07.190Z,94751.75
2018-12-02T11:41:10.688Z,94757.70
2018-12-02T11:42:14.231Z,94751.58
2018-12-02T11:43:17.735Z,94751.42
2018-12-02T11:44:21.242Z,94756.23
2018-12-02T11:45:24.738Z,94758.81
2018-12-02T11:46:28.195Z,94746.22
2018-12-02T11:47:31.775Z,94753.89
2018-12-02T11:48:35.612Z,94754.84
2018-12-02T11:49:39.188Z,94760.37
2018-12-02T11:50:42.763Z,94752.86
2018-12-02T11:51:46.236Z,94756.99
2018-12-02T11:52:49.723Z,94757.66
2018-12-02T11:53:54.000Z,94757.42
2018-12-02T11:54:57.554Z,94756.63
2018-12-02T11:56:01.143Z,94755.80
2018-12-02T11:57:04.710Z,94761.99
2018-12-02T11:58:08.355Z,94760.97
2018-12-02T11:59:12.131Z,94757.63
2018-12-02T12:00:29.342Z,94759.45
2018-12-02T12:01:32.823Z,94767.52
2018-12-02T12:02:36.383Z,94755.68
2018-12-02T12:03:39.970Z,94761.28
2018-12-02T12:04:43.564Z,94760.38
2018-12-02T12:05:47.033Z,94761.92
2018-12-02T12:06:50.580Z,94760.52
2018-12-02T12:07:54.336Z,94754.33
2018-12-02T12:08:57.860Z,94752.61
2018-12-02T12:10:01.547Z,94755.00
2018-12-02T12:11:06.141Z,94751.13
2018-12-02T12:12:09.709Z,94755.52
2018-12-02T12:13:13.191Z,94750.73
2018-12-02T12:14:16.799Z,94754.16
2018-12-02T12:15:21.615Z,94750.73
2018-12-02T12:16:25.077Z,94757.08
2018-12-02T12:17:28.592Z,94765.44
2018-12-02T12:18:32.058Z,94759.23
2018-12-02T12:19:35.525Z,94747.14
2018-12-02T12:20:42.458Z,94751.64
2018-12-02T12:21:46.044Z,94759.05
2018-12-02T12:22:49.861Z,94751.64
2018-12-02T12:23:53.368Z,94748.30
2018-12-02T12:24:56.883Z,94752.99
2018-12-02T12:26:00.377Z,94749.52
2018-12-02T12:27:03.921Z,94743.55
2018-12-02T12:28:08.685Z,94747.09
2018-12-02T12:29:12.275Z,94740.67
2018-12-02T12:30:20.113Z,94748.36
2018-12-02T12:31:23.650Z,94748.89
2018-12-02T12:32:27.248Z,94746.22
2018-12-02T12:33:30.900Z,94740.48
2018-12-02T12:34:34.427Z,94746.94